Time;durP1;ratioP1;P1;durP2;ratioP2;P2;SDS_P1;SDS_P2;PMS_P1;PMS_P2;Temp;Humidity;BMP_temperature;BMP_pressure;BME280_temperature;BME280_humidity;BME280_pressure;Samples;Min_cycle;Max_cycle;Signal;HPM_P1;HPM_P2
2023/05/01 00:01:38;;;;;;;5.30;3.60;;;;;;;19.77;29.61;99756.77;107998;1256;74704;-67
2023/05/01 00:04:05;;;;;;;6.50;4.00;;;;;;;19.59;29.70;99757.15;107888;1256;70337;-68
2023/05/01 00:06:32;;;;;;;7.20;4.00;;;;;;;19.36;29.92;99761.14;107846;1256;74928;-67
2023/05/01 00:08:59;;;;;;;8.10;4.10;;;;;;;19.42;29.82;99757.09;107795;1260;60103;-67
2023/05/01 00:11:26;;;;;;;6.50;4.10;;;;;;;19.31;30.11;99759.27;107875;1255;59484;-67
2023/05/01 00:13:53;;;;;;;9.80;4.20;;;;;;;19.23;30.32;99762.02;107863;1256;73723;-66
2023/05/01 00:16:20;;;;;;;6.60;4.00;;;;;;;19.16;30.51;99770.05;107884;1256;72188;-67
2023/05/01 00:18:47;;;;;;;5.70;3.60;;;;;;;19.27;30.39;99768.82;107810;1260;74501;-67
2023/05/01 00:21:14;;;;;;;6.40;3.90;;;;;;;19.47;30.28;99772.55;107862;1256;60462;-66
2023/05/01 00:23:41;;;;;;;7.80;3.80;;;;;;;19.39;30.37;99771.06;107850;1256;60145;-67
2023/05/01 00:26:08;;;;;;;7.40;4.20;;;;;;;19.58;30.21;99773.83;107880;1256;75797;-67
2023/05/01 00:28:35;;;;;;;7.60;3.70;;;;;;;19.28;30.42;99776.56;107735;1255;72757;-68
2023/05/01 00:31:02;;;;;;;7.10;4.00;;;;;;;18.99;30.69;99778.64;107769;1262;72745;-67
2023/05/01 00:33:29;;;;;;;7.10;4.00;;;;;;;18.87;30.78;99779.39;107825;1256;60559;-67
2023/05/01 00:35:55;;;;;;;6.50;4.30;;;;;;;18.88;30.87;99783.45;107752;1255;62560;-67
2023/05/01 00:38:23;;;;;;;5.70;3.80;;;;;;;18.90;30.94;99789.28;107684;1256;76091;-66
2023/05/01 00:40:50;;;;;;;7.80;4.00;;;;;;;18.97;30.92;99783.60;107900;1256;71223;-66
2023/05/01 00:43:17;;;;;;;10.40;4.10;;;;;;;19.02;31.01;99786.97;107895;1256;73678;-67
2023/05/01 00:45:45;;;;;;;7.40;4.10;;;;;;;18.92;31.04;99791.39;107875;1256;60947;-66
2023/05/01 00:48:11;;;;;;;6.30;3.70;;;;;;;18.79;31.37;99794.61;107914;1256;60461;-66
2023/05/01 00:50:38;;;;;;;6.30;3.80;;;;;;;18.95;31.18;99792.12;107807;1257;73780;-66
2023/05/01 00:53:05;;;;;;;7.70;3.70;;;;;;;19.17;30.84;99793.64;107803;1257;72578;-67
2023/05/01 00:55:32;;;;;;;7.40;4.30;;;;;;;18.93;30.94;99799.20;107711;1256;70975;-67
2023/05/01 00:57:59;;;;;;;9.80;4.20;;;;;;;19.05;30.74;99801.86;108028;1256;63079;-67
2023/05/01 01:00:28;;;;;;;9.70;4.20;;;;;;;18.97;30.71;99805.45;107894;1259;62591;-67
2023/05/01 01:02:55;;;;;;;12.40;4.20;;;;;;;19.00;30.61;99809.14;107817;1257;73968;-67
2023/05/01 01:05:24;;;;;;;7.30;4.10;;;;;;;19.13;30.52;99812.60;107921;1260;72229;-67
2023/05/01 01:08:17;;;;;;;8.10;4.00;;;;;;;19.47;30.22;99810.15;107945;1255;73300;-66
2023/05/01 01:11:01;;;;;;;7.00;4.40;;;;;;;19.44;30.33;99822.82;107833;1256;63268;-66
2023/05/01 01:13:32;;;;;;;10.30;5.10;;;;;;;19.34;30.76;99835.89;107903;1256;60337;-67
2023/05/01 01:16:14;;;;;;;6.70;4.40;;;;;;;19.68;30.40;99841.42;107942;1255;72503;-67
2023/05/01 01:18:46;;;;;;;12.40;6.00;;;;;;;19.84;30.35;99834.82;107831;1256;70689;-67
2023/05/01 01:21:31;;;;;;;11.90;6.90;;;;;;;19.38;30.98;99836.44;107827;1257;74725;-67
2023/05/01 01:24:03;;;;;;;18.90;8.50;;;;;;;18.93;31.93;99837.60;107933;1256;60309;-68
2023/05/01 01:26:51;;;;;;;17.70;8.90;;;;;;;19.99;30.87;99827.55;107782;1255;59588;-67
2023/05/01 01:29:37;;;;;;;16.30;8.00;;;;;;;20.02;30.96;99818.69;107783;1256;75934;-67
2023/05/01 01:32:34;;;;;;;19.50;9.40;;;;;;;20.66;30.26;99807.96;107739;1256;72037;-66
2023/05/01 01:35:06;;;;;;;18.50;9.50;;;;;;;20.59;30.48;99801.77;107881;1257;74704;-67
2023/05/01 01:37:47;;;;;;;13.40;8.20;;;;;;;20.73;30.42;99802.23;107907;1256;63443;-65
2023/05/01 01:40:16;;;;;;;14.30;7.10;;;;;;;20.38;30.75;99810.83;107901;1256;61452;-66
2023/05/01 01:42:51;;;;;;;16.10;8.30;;;;;;;20.83;30.42;99810.98;107847;1255;75813;-67
2023/05/01 01:45:22;;;;;;;15.30;7.80;;;;;;;21.18;29.89;99808.68;107862;1255;72616;-68
2023/05/01 01:47:49;;;;;;;15.50;7.60;;;;;;;20.68;30.57;99816.00;107782;1261;72626;-66
2023/05/01 01:50:16;;;;;;;15.00;7.30;;;;;;;21.06;30.11;99806.16;107681;1256;61570;-66
2023/05/01 01:52:44;;;;;;;11.10;6.30;;;;;;;21.51;29.63;99805.31;107834;1260;60058;-65
2023/05/01 01:55:12;;;;;;;18.20;7.30;;;;;;;21.66;29.44;99807.45;107927;1256;75478;-66
2023/05/01 01:57:39;;;;;;;14.70;7.50;;;;;;;21.42;29.85;99810.54;107979;1255;70139;-66
2023/05/01 02:00:10;;;;;;;11.80;7.10;;;;;;;21.45;29.75;99815.33;107794;1256;75062;-68
2023/05/01 02:02:42;;;;;;;10.80;6.30;;;;;;;21.11;29.82;99822.33;107753;1256;63165;-65
2023/05/01 02:05:12;;;;;;;7.90;4.80;;;;;;;20.94;29.91;99826.50;107783;1255;61748;-65
2023/05/01 02:07:39;;;;;;;9.90;6.00;;;;;;;21.34;29.49;99828.41;107753;1260;74709;-67
2023/05/01 02:10:08;;;;;;;10.90;5.80;;;;;;;20.83;29.95;99830.60;107657;1256;70148;-67
2023/05/01 02:12:36;;;;;;;9.70;6.10;;;;;;;21.02;29.86;99833.96;107663;1257;74657;-66
2023/05/01 02:15:04;;;;;;;14.20;6.90;;;;;;;21.55;29.22;99829.08;107707;1259;63014;-67
2023/05/01 02:17:31;;;;;;;16.20;7.90;;;;;;;21.56;29.19;99831.51;107736;1256;61185;-66
2023/05/01 02:19:57;;;;;;;11.30;6.40;;;;;;;21.15;29.71;99835.23;107822;1256;75069;-67
2023/05/01 02:22:25;;;;;;;11.90;7.50;;;;;;;21.02;30.02;99837.23;107740;1255;72116;-65
2023/05/01 02:24:53;;;;;;;15.40;7.60;;;;;;;20.92;30.30;99841.42;107734;1257;71877;-66
2023/05/01 02:27:26;;;;;;;13.90;7.90;;;;;;;20.49;31.15;99845.89;107815;1256;62509;-66
2023/05/01 02:29:53;;;;;;;15.60;8.50;;;;;;;20.38;31.55;99853.27;107859;1255;60348;-67
2023/05/01 02:32:21;;;;;;;11.00;5.90;;;;;;;20.42;31.61;99852.58;107692;1256;72693;-67
2023/05/01 02:34:48;;;;;;;14.70;7.70;;;;;;;20.59;31.47;99852.42;107741;1255;70814;-67
2023/05/01 02:37:15;;;;;;;14.30;7.40;;;;;;;20.72;31.47;99856.71;107888;1255;74026;-66
2023/05/01 02:39:42;;;;;;;15.10;6.80;;;;;;;20.90;31.31;99853.59;107872;1255;63505;-65
2023/05/01 02:42:11;;;;;;;14.30;7.00;;;;;;;21.14;31.07;99854.75;107880;1258;60589;-66
2023/05/01 02:44:43;;;;;;;13.60;6.80;;;;;;;21.37;31.10;99856.71;107943;1257;76279;-65
2023/05/01 02:47:10;;;;;;;15.30;7.60;;;;;;;21.19;31.26;99856.09;107731;1257;72361;-66
2023/05/01 02:49:37;;;;;;;15.00;7.00;;;;;;;20.95;31.66;99865.62;107672;1256;74898;-67
2023/05/01 02:52:04;;;;;;;13.80;7.70;;;;;;;20.96;31.81;99869.52;107675;1256;62862;-66
2023/05/01 02:54:31;;;;;;;14.70;7.90;;;;;;;21.12;31.63;99871.35;107896;1255;61854;-66
2023/05/01 02:57:01;;;;;;;15.20;7.50;;;;;;;21.38;31.45;99878.20;107889;1260;74072;-67
2023/05/01 02:59:28;;;;;;;12.50;6.80;;;;;;;21.73;31.18;99873.27;107636;1257;72746;-66
2023/05/01 03:01:55;;;;;;;13.50;6.70;;;;;;;21.77;31.12;99873.27;107888;1255;72342;-66
2023/05/01 03:04:22;;;;;;;12.90;6.80;;;;;;;22.01;30.76;99880.82;107812;1255;62118;-66
2023/05/01 03:06:49;;;;;;;12.50;7.30;;;;;;;22.25;30.51;99884.73;107870;1256;61139;-66
2023/05/01 03:09:16;;;;;;;10.40;6.20;;;;;;;22.25;30.61;99890.53;108084;1256;73648;-65
2023/05/01 03:11:43;;;;;;;12.10;6.60;;;;;;;22.29;30.53;99889.59;107912;1256;70431;-65
2023/05/01 03:14:10;;;;;;;13.20;6.60;;;;;;;22.12;30.98;99892.01;107825;1257;71266;-66
2023/05/01 03:16:37;;;;;;;14.80;6.50;;;;;;;22.18;31.03;99890.36;107758;1256;62167;-65
2023/05/01 03:19:04;;;;;;;10.50;6.40;;;;;;;22.57;30.60;99893.16;107869;1256;60247;-65
2023/05/01 03:21:32;;;;;;;9.60;6.20;;;;;;;22.88;30.57;99895.10;107941;1256;74695;-67
2023/05/01 03:23:59;;;;;;;8.20;5.50;;;;;;;23.22;30.65;99895.06;107869;1256;71780;-68
2023/05/01 03:26:26;;;;;;;9.80;5.40;;;;;;;23.61;30.24;99897.87;107842;1256;72132;-65
2023/05/01 03:28:53;;;;;;;8.70;5.10;;;;;;;23.95;30.02;99896.01;107962;1255;62065;-65
2023/05/01 03:31:20;;;;;;;9.30;5.50;;;;;;;24.48;29.38;99897.54;107847;1255;62316;-64
2023/05/01 03:33:47;;;;;;;10.30;5.40;;;;;;;24.93;28.77;99899.70;107870;1257;76552;-64
2023/05/01 03:36:15;;;;;;;8.70;5.20;;;;;;;25.25;28.60;99901.60;107833;1255;71831;-68
2023/05/01 03:38:42;;;;;;;8.90;4.90;;;;;;;25.92;27.92;99900.33;107869;1259;73301;-67
2023/05/01 03:41:09;;;;;;;10.00;4.50;;;;;;;26.40;27.18;99904.42;107964;1256;61688;-66
2023/05/01 03:43:38;;;;;;;9.60;4.40;;;;;;;26.15;27.24;99906.39;107923;1256;61533;-66
2023/05/01 03:46:10;;;;;;;7.90;4.20;;;;;;;26.08;27.33;99909.28;107726;1256;75744;-66
2023/05/01 03:48:37;;;;;;;7.80;4.30;;;;;;;26.05;27.28;99910.52;107888;1257;70838;-65
2023/05/01 03:51:04;;;;;;;8.80;4.50;;;;;;;26.48;26.81;99916.70;107890;1256;73470;-68
2023/05/01 03:53:32;;;;;;;8.70;4.10;;;;;;;26.57;26.51;99921.88;107729;1256;64167;-66
2023/05/01 03:56:00;;;;;;;6.70;4.30;;;;;;;26.55;26.52;99925.34;107938;1257;61779;-68
2023/05/01 03:58:27;;;;;;;10.70;4.80;;;;;;;26.39;26.52;99924.30;107869;1256;76055;-67
2023/05/01 04:00:55;;;;;;;7.20;4.00;;;;;;;26.40;26.63;99925.42;107693;1257;73012;-67
2023/05/01 04:03:22;;;;;;;7.50;4.10;;;;;;;26.29;26.55;99929.30;107673;1256;74837;-67
2023/05/01 04:05:51;;;;;;;5.90;3.80;;;;;;;26.18;26.64;99928.29;107844;1257;61718;-67
2023/05/01 04:08:18;;;;;;;6.20;3.60;;;;;;;26.62;26.29;99935.42;107636;1255;60208;-68
2023/05/01 04:10:45;;;;;;;8.20;3.70;;;;;;;26.98;25.98;99938.08;107686;1256;75040;-66
2023/05/01 04:13:12;;;;;;;6.30;3.60;;;;;;;27.36;25.53;99941.17;107948;1256;71037;-67
2023/05/01 04:15:42;;;;;;;6.60;3.50;;;;;;;27.91;24.91;99945.02;107867;1257;74664;-66
2023/05/01 04:18:09;;;;;;;6.20;3.70;;;;;;;28.24;24.64;99944.52;107624;1256;61123;-66
2023/05/01 04:20:36;;;;;;;7.60;3.70;;;;;;;28.87;23.94;99944.23;107923;1256;61458;-67
2023/05/01 04:23:04;;;;;;;8.40;3.60;;;;;;;29.37;23.14;99949.95;107912;1255;75726;-65
2023/05/01 04:25:31;;;;;;;6.60;3.30;;;;;;;29.81;22.84;99947.25;108024;1261;71292;-67
2023/05/01 04:28:06;;;;;;;7.80;3.30;;;;;;;30.15;22.43;99946.23;107954;1256;75287;-67
2023/05/01 04:30:33;;;;;;;5.80;3.00;;;;;;;30.61;21.87;99946.09;107892;1256;60351;-67
2023/05/01 04:33:00;;;;;;;5.80;2.80;;;;;;;30.79;21.59;99950.72;107846;1256;62635;-66
2023/05/01 04:35:28;;;;;;;7.10;2.60;;;;;;;30.95;21.24;99951.67;107899;1261;76010;-67
2023/05/01 04:37:55;;;;;;;5.20;2.70;;;;;;;31.28;20.83;99957.99;107775;1256;71450;-66
2023/05/01 04:40:23;;;;;;;5.90;2.70;;;;;;;31.39;20.82;99960.70;107709;1257;72276;-67
2023/05/01 04:42:50;;;;;;;5.90;2.30;;;;;;;31.36;20.30;99960.83;107898;1255;60354;-66
2023/05/01 04:45:17;;;;;;;3.30;2.50;;;;;;;30.74;20.78;99965.68;107721;1257;61281;-68
2023/05/01 04:47:44;;;;;;;6.20;2.40;;;;;;;29.98;21.34;99967.45;107815;1257;74355;-68
2023/05/01 04:50:11;;;;;;;13.00;2.70;;;;;;;30.28;20.69;99967.27;107880;1256;72591;-67
2023/05/01 04:52:39;;;;;;;9.40;2.50;;;;;;;30.05;20.80;99969.48;107872;1261;74823;-67
2023/05/01 04:55:07;;;;;;;3.30;2.10;;;;;;;30.00;21.04;99973.30;107946;1257;62531;-67
2023/05/01 04:57:35;;;;;;;3.60;2.00;;;;;;;30.28;20.58;99978.34;107744;1257;62743;-66
2023/05/01 05:00:07;;;;;;;2.70;1.80;;;;;;;30.41;20.30;99978.17;107901;1254;75407;-67
2023/05/01 05:02:40;;;;;;;5.40;2.00;;;;;;;31.45;19.40;99983.47;107944;1254;71729;-69
2023/05/01 05:05:08;;;;;;;13.90;2.20;;;;;;;31.45;19.25;99983.31;107977;1255;74983;-67
2023/05/01 05:07:35;;;;;;;6.70;2.10;;;;;;;31.40;18.70;99986.48;107874;1255;62490;-67
2023/05/01 05:10:27;;;;;;;4.20;2.30;;;;;;;31.39;18.66;99986.02;107756;1254;60371;-68
2023/05/01 05:13:12;;;;;;;5.70;1.70;;;;;;;31.38;18.60;99991.18;107869;1256;75954;-67
2023/05/01 05:15:39;;;;;;;6.40;1.90;;;;;;;31.72;18.50;99999.58;107925;1254;70718;-69
2023/05/01 05:18:07;;;;;;;3.60;1.80;;;;;;;32.14;17.88;99997.11;107881;1259;72818;-70
2023/05/01 05:20:37;;;;;;;8.30;1.80;;;;;;;31.88;17.77;100008.80;107849;1256;61149;-68
2023/05/01 05:23:05;;;;;;;8.10;2.20;;;;;;;31.52;17.91;100004.36;107808;1256;63066;-67
2023/05/01 05:25:34;;;;;;;5.10;2.00;;;;;;;30.97;18.24;100011.18;107885;1254;75946;-68
2023/05/01 05:28:00;;;;;;;5.80;1.90;;;;;;;31.38;18.13;100009.16;107910;1257;72373;-67
2023/05/01 05:30:27;;;;;;;2.90;1.50;;;;;;;32.10;17.82;100013.23;107877;1257;74660;-68
2023/05/01 05:32:55;;;;;;;4.50;1.80;;;;;;;31.89;17.74;100014.77;108008;1256;61281;-69
2023/05/01 05:35:22;;;;;;;2.10;1.40;;;;;;;32.05;17.36;100019.80;107891;1256;62564;-69
2023/05/01 05:37:49;;;;;;;8.10;1.90;;;;;;;32.63;16.70;100021.07;107854;1256;74634;-69
2023/05/01 05:40:16;;;;;;;5.70;2.30;;;;;;;32.65;16.58;100024.39;107954;1259;72457;-69
2023/05/01 05:42:52;;;;;;;13.60;1.90;;;;;;;32.98;16.40;100026.54;107874;1259;75056;-69
2023/05/01 05:45:19;;;;;;;2.60;1.50;;;;;;;33.38;15.87;100021.59;107827;1255;60334;-67
2023/05/01 05:47:46;;;;;;;4.00;1.70;;;;;;;33.51;15.68;100030.02;107960;1256;62503;-69
2023/05/01 05:50:13;;;;;;;4.60;1.60;;;;;;;33.78;15.70;100034.36;107910;1256;75995;-68
2023/05/01 05:52:41;;;;;;;4.70;1.90;;;;;;;34.16;15.32;100039.46;107997;1256;72303;-67
2023/05/01 05:55:09;;;;;;;7.30;1.60;;;;;;;34.01;15.09;100037.41;107918;1257;72784;-68
2023/05/01 05:57:36;;;;;;;3.80;1.60;;;;;;;33.65;15.28;100039.49;107834;1260;63002;-66
2023/05/01 06:00:06;;;;;;;3.20;1.60;;;;;;;33.57;15.52;100044.27;107744;1256;61719;-67
2023/05/01 06:02:37;;;;;;;2.20;1.70;;;;;;;33.23;15.62;100049.98;107945;1256;73996;-67
2023/05/01 06:05:05;;;;;;;2.70;1.40;;;;;;;33.33;15.61;100054.80;107657;1256;72791;-68
2023/05/01 06:07:32;;;;;;;9.70;1.70;;;;;;;33.63;15.02;100057.66;107673;1257;72737;-68
2023/05/01 06:10:03;;;;;;;8.10;2.00;;;;;;;33.71;14.63;100059.48;107863;1257;61267;-69
2023/05/01 06:12:30;;;;;;;6.90;1.70;;;;;;;33.68;14.62;100063.68;107677;1256;60312;-69
2023/05/01 06:14:58;;;;;;;3.50;1.70;;;;;;;33.89;14.56;100070.78;107855;1256;74002;-68
2023/05/01 06:17:25;;;;;;;3.20;1.30;;;;;;;33.66;14.57;100068.36;107825;1260;72257;-67
2023/05/01 06:19:52;;;;;;;3.30;1.30;;;;;;;33.87;14.55;100072.40;107811;1256;72744;-68
2023/05/01 06:22:20;;;;;;;3.10;1.30;;;;;;;34.24;14.64;100077.73;107620;1256;61945;-69
2023/05/01 06:24:58;;;;;;;4.40;1.50;;;;;;;34.07;14.36;100081.47;107856;1256;61342;-68
2023/05/01 06:27:25;;;;;;;6.70;2.00;;;;;;;34.10;14.04;100086.42;107893;1260;75915;-68
2023/05/01 06:29:52;;;;;;;4.00;1.50;;;;;;;33.87;14.30;100092.50;107877;1258;70631;-68
2023/05/01 06:32:19;;;;;;;4.40;1.40;;;;;;;33.66;14.46;100088.89;107900;1256;74974;-66
2023/05/01 06:34:46;;;;;;;4.30;1.40;;;;;;;33.44;14.53;100094.02;107799;1255;60388;-67
2023/05/01 06:37:13;;;;;;;3.10;1.20;;;;;;;33.72;14.41;100099.02;107676;1256;60967;-70
2023/05/01 06:39:40;;;;;;;2.70;1.30;;;;;;;33.83;13.94;100099.73;107919;1256;74142;-68
2023/05/01 06:42:10;;;;;;;1.30;1.00;;;;;;;33.94;13.72;100101.30;107743;1258;71011;-69
2023/05/01 06:44:38;;;;;;;4.70;1.40;;;;;;;33.86;13.71;100100.03;107866;1257;72975;-69
2023/05/01 06:47:05;;;;;;;2.20;1.20;;;;;;;34.05;13.46;100101.13;107672;1257;62304;-68
2023/05/01 06:49:32;;;;;;;6.90;1.60;;;;;;;34.04;13.30;100104.65;107824;1256;60666;-69
2023/05/01 06:51:59;;;;;;;4.20;1.30;;;;;;;33.44;13.34;100102.11;107622;1256;72741;-69
2023/05/01 06:54:26;;;;;;;6.80;1.50;;;;;;;33.77;13.12;100107.02;107716;1256;69000;-69
2023/05/01 06:56:53;;;;;;;6.90;1.30;;;;;;;33.22;12.41;100111.83;107917;1260;74700;-68
2023/05/01 06:59:20;;;;;;;18.80;2.00;;;;;;;32.96;12.38;100116.76;107720;1257;60521;-68
2023/05/01 07:01:47;;;;;;;5.90;1.20;;;;;;;32.61;12.49;100119.00;107885;1256;60504;-69
2023/05/01 07:04:14;;;;;;;2.80;0.90;;;;;;;32.68;12.40;100117.56;107929;1257;76156;-68
2023/05/01 07:06:40;;;;;;;6.30;1.60;;;;;;;33.21;12.46;100123.42;107881;1257;72202;-67
2023/05/01 07:09:07;;;;;;;5.00;1.30;;;;;;;33.27;12.23;100118.83;107869;1261;73046;-69
2023/05/01 07:11:34;;;;;;;3.80;1.20;;;;;;;33.20;12.12;100118.63;107830;1257;62433;-70
2023/05/01 07:14:01;;;;;;;3.90;0.90;;;;;;;33.43;12.41;100115.46;107920;1257;62402;-69
2023/05/01 07:16:28;;;;;;;3.80;1.10;;;;;;;33.06;12.14;100122.59;107877;1255;73869;-69
2023/05/01 07:18:55;;;;;;;3.30;1.20;;;;;;;32.74;12.42;100126.98;107864;1255;72256;-68
2023/05/01 07:21:22;;;;;;;0.90;0.70;;;;;;;32.75;12.90;100135.02;107842;1257;74975;-69
2023/05/01 07:23:49;;;;;;;4.90;1.10;;;;;;;33.06;12.43;100141.91;107841;1257;62260;-69
2023/05/01 07:26:16;;;;;;;4.00;0.90;;;;;;;33.25;12.66;100139.52;107879;1257;60461;-69
2023/05/01 07:28:43;;;;;;;2.90;0.90;;;;;;;33.49;12.14;100149.48;107905;1256;73868;-68
2023/05/01 07:31:09;;;;;;;2.00;0.80;;;;;;;33.35;12.03;100151.34;107886;1256;70929;-67
2023/05/01 07:33:36;;;;;;;7.50;1.40;;;;;;;33.18;11.82;100151.98;107892;1260;72440;-68
2023/05/01 07:36:03;;;;;;;3.10;1.40;;;;;;;33.45;11.87;100148.77;107888;1257;61707;-70
2023/05/01 07:38:30;;;;;;;4.40;0.90;;;;;;;33.39;12.04;100161.77;107815;1256;60810;-70
2023/05/01 07:40:57;;;;;;;6.60;1.20;;;;;;;32.87;11.86;100164.17;107927;1260;75602;-68
2023/05/01 07:43:23;;;;;;;5.00;0.90;;;;;;;32.85;12.04;100165.48;107961;1256;72471;-68
2023/05/01 07:46:00;;;;;;;7.30;1.10;;;;;;;32.49;12.37;100167.73;107945;1256;72880;-67
2023/05/01 07:48:27;;;;;;;4.60;1.00;;;;;;;32.54;12.33;100175.09;107939;1257;62238;-71
2023/05/01 07:50:55;;;;;;;2.80;0.90;;;;;;;32.93;12.20;100166.28;107880;1258;61260;-68
2023/05/01 07:53:22;;;;;;;1.10;1.00;;;;;;;32.67;12.28;100168.16;107858;1260;76141;-69
2023/05/01 07:55:49;;;;;;;21.20;1.80;;;;;;;32.15;12.39;100164.23;107925;1256;72267;-66
2023/05/01 07:58:16;;;;;;;4.70;0.90;;;;;;;32.55;12.60;100169.59;107869;1261;75201;-68
2023/05/01 08:00:46;;;;;;;2.00;1.00;;;;;;;33.13;12.25;100173.71;107901;1259;63055;-68
2023/05/01 08:03:12;;;;;;;1.60;1.00;;;;;;;33.45;11.98;100177.16;107893;1257;62514;-69
2023/05/01 08:05:40;;;;;;;5.90;1.10;;;;;;;33.56;12.03;100178.04;107755;1257;75901;-69
2023/05/01 08:08:08;;;;;;;2.00;0.90;;;;;;;33.21;11.89;100179.50;107876;1257;72504;-69
2023/05/01 08:10:35;;;;;;;3.30;0.90;;;;;;;33.40;12.01;100172.43;107913;1257;73758;-69
2023/05/01 08:13:02;;;;;;;4.20;0.90;;;;;;;33.25;12.04;100179.44;107774;1261;241377;-69
2023/05/01 08:16:55;;;;;;;11.90;1.00;;;;;;;30.38;13.22;100189.77;104964;1289;600179;-69
2023/05/01 08:19:22;;;;;;;5.30;0.90;;;;;;;32.18;12.29;100190.92;107259;1266;59279;-69
2023/05/01 08:21:49;;;;;;;2.90;1.00;;;;;;;32.92;12.29;100193.19;107665;1258;61094;-69
2023/05/01 08:24:16;;;;;;;4.10;0.90;;;;;;;32.92;11.75;100198.77;107619;1259;72390;-69
2023/05/01 08:26:43;;;;;;;2.00;0.70;;;;;;;33.20;11.81;100193.31;107700;1259;72751;-68
2023/05/01 08:29:10;;;;;;;5.80;1.00;;;;;;;33.07;11.60;100190.51;107729;1259;74794;-69
2023/05/01 08:31:38;;;;;;;3.60;1.10;;;;;;;33.09;11.69;100204.92;107661;1260;339186;-68
2023/05/01 08:34:05;;;;;;;8.10;1.20;;;;;;;33.21;11.67;100199.06;107854;1256;62794;-69
2023/05/01 08:36:33;;;;;;;4.10;0.90;;;;;;;33.05;11.62;100200.45;107946;1256;71553;-69
2023/05/01 08:38:59;;;;;;;4.80;1.20;;;;;;;33.09;11.67;100205.33;107904;1257;69501;-68
2023/05/01 08:41:27;;;;;;;3.10;0.80;;;;;;;33.01;11.69;100205.62;107842;1256;74622;-70
2023/05/01 08:43:57;;;;;;;3.00;1.10;;;;;;;32.89;11.37;100205.25;107859;1262;60127;-70
2023/05/01 08:46:28;;;;;;;5.20;1.10;;;;;;;32.93;11.46;100208.66;107606;1256;62212;-71
2023/05/01 08:48:54;;;;;;;2.60;0.90;;;;;;;33.25;11.45;100205.95;107959;1252;73616;-69
2023/05/01 08:51:24;;;;;;;4.70;1.20;;;;;;;33.50;11.23;100204.66;108159;1253;69476;-69
2023/05/01 08:53:51;;;;;;;1.80;0.90;;;;;;;33.46;11.31;100207.19;107954;1252;74698;-69
2023/05/01 08:56:19;;;;;;;1.50;0.90;;;;;;;33.61;11.31;100211.16;107975;1253;62344;-69
2023/05/01 08:58:46;;;;;;;4.30;0.80;;;;;;;34.10;11.03;100208.80;107862;1253;62425;-68
2023/05/01 09:01:14;;;;;;;2.60;1.10;;;;;;;34.25;10.92;100225.09;108009;1253;73820;-68
2023/05/01 09:03:43;;;;;;;4.10;1.00;;;;;;;33.96;10.73;100222.96;107925;1252;71309;-69
2023/05/01 09:06:10;;;;;;;2.90;1.10;;;;;;;33.96;10.89;100217.93;108032;1253;74044;-70
2023/05/01 09:08:37;;;;;;;4.70;0.90;;;;;;;33.81;11.00;100222.56;107937;1260;62004;-68
2023/05/01 09:11:05;;;;;;;4.90;0.90;;;;;;;33.86;11.08;100231.02;108038;1253;60211;-69
2023/05/01 09:13:32;;;;;;;5.00;1.00;;;;;;;33.61;11.23;100242.88;108023;1253;73799;-70
2023/05/01 09:15:59;;;;;;;8.90;0.90;;;;;;;33.59;10.97;100238.39;108021;1258;72016;-69
2023/05/01 09:18:27;;;;;;;4.40;1.00;;;;;;;34.02;11.24;100233.91;107996;1253;74030;-69
2023/05/01 09:20:54;;;;;;;4.30;1.10;;;;;;;34.12;10.85;100239.69;107992;1253;61461;-70
2023/05/01 09:23:21;;;;;;;4.30;0.90;;;;;;;34.04;10.77;100247.53;108126;1253;59551;-68
2023/05/01 09:25:47;;;;;;;3.20;0.80;;;;;;;34.20;10.92;100241.14;108046;1253;65411;-69
2023/05/01 09:28:17;;;;;;;2.10;0.80;;;;;;;33.94;10.84;100240.95;107882;1252;71789;-70
2023/05/01 09:30:45;;;;;;;3.70;1.00;;;;;;;34.05;10.84;100245.52;107956;1256;73100;-69
2023/05/01 09:33:13;;;;;;;4.80;1.10;;;;;;;34.03;11.06;100252.20;108020;1253;60254;-68
2023/05/01 09:35:53;;;;;;;2.30;1.00;;;;;;;34.26;10.77;100247.64;108108;1253;60719;-69
2023/05/01 09:38:24;;;;;;;8.60;1.20;;;;;;;34.13;11.04;100258.70;108129;1253;74677;-69
2023/05/01 09:40:52;;;;;;;2.50;0.90;;;;;;;34.02;10.66;100254.05;108070;1253;72287;-69
2023/05/01 09:43:24;;;;;;;3.40;0.90;;;;;;;34.05;10.97;100262.30;108135;1253;71481;-67
2023/05/01 09:46:03;;;;;;;4.40;1.10;;;;;;;34.05;11.24;100263.21;108125;1253;62103;-68
2023/05/01 09:48:31;;;;;;;2.00;0.90;;;;;;;33.93;11.04;100259.19;108060;1253;59832;-69
2023/05/01 09:51:18;;;;;;;1.50;1.00;;;;;;;34.30;11.19;100258.55;108059;1253;75501;-68
2023/05/01 09:53:45;;;;;;;10.30;1.50;;;;;;;34.27;10.99;100253.34;107949;1253;63449;-70
2023/05/01 09:56:13;;;;;;;4.30;1.30;;;;;;;34.16;10.96;100262.23;107948;1258;65080;-68
2023/05/01 09:58:40;;;;;;;5.80;1.10;;;;;;;34.34;10.87;100262.93;107884;1255;61287;-70
2023/05/01 10:01:07;;;;;;;3.70;1.00;;;;;;;34.58;10.78;100262.09;107884;1254;59637;-69
2023/05/01 10:03:34;;;;;;;4.30;0.90;;;;;;;34.53;10.70;100261.81;107928;1254;66592;-71
2023/05/01 10:06:03;;;;;;;4.20;0.90;;;;;;;34.75;10.85;100257.15;107922;1254;70443;-71
2023/05/01 10:08:49;;;;;;;3.90;1.00;;;;;;;34.66;10.58;100263.13;107953;1256;66144;-70
2023/05/01 10:11:16;;;;;;;6.10;1.30;;;;;;;34.37;10.53;100266.05;107948;1256;59547;-69
2023/05/01 10:13:43;;;;;;;5.10;0.80;;;;;;;34.08;10.93;100265.33;108013;1255;60864;-70
2023/05/01 10:16:27;;;;;;;3.00;0.80;;;;;;;33.90;10.70;100269.23;107987;1254;71423;-68
2023/05/01 10:18:56;;;;;;;1.50;1.00;;;;;;;33.79;10.98;100262.17;107985;1254;72666;-68
2023/05/01 10:21:23;;;;;;;1.10;0.90;;;;;;;34.04;10.99;100261.59;107970;1256;71303;-71
2023/05/01 10:23:51;;;;;;;6.90;0.90;;;;;;;34.31;10.85;100263.66;107980;1255;59632;-66
2023/05/01 10:26:19;;;;;;;3.90;1.10;;;;;;;34.52;10.75;100260.09;107976;1254;59416;-71
2023/05/01 10:28:47;;;;;;;2.90;0.90;;;;;;;34.92;10.62;100258.65;107886;1254;66538;-69
2023/05/01 10:31:15;;;;;;;5.30;0.80;;;;;;;35.14;10.56;100256.34;107971;1260;63997;-69
2023/05/01 10:33:43;;;;;;;2.50;1.10;;;;;;;35.05;10.15;100267.27;107971;1256;64749;-69
2023/05/01 10:36:12;;;;;;;3.30;1.00;;;;;;;34.60;9.94;100265.90;107923;1254;59628;-71
2023/05/01 10:38:40;;;;;;;3.70;1.60;;;;;;;34.65;10.31;100268.72;108002;1254;59663;-71
2023/05/01 10:41:08;;;;;;;4.40;0.90;;;;;;;35.00;10.58;100274.54;107971;1254;65293;-70
2023/05/01 10:43:34;;;;;;;3.80;0.80;;;;;;;35.23;10.17;100277.20;108010;1254;62963;-70
2023/05/01 10:46:20;;;;;;;2.10;0.60;;;;;;;35.60;9.82;100279.95;107989;1255;65983;-69
2023/05/01 10:48:50;;;;;;;4.00;0.80;;;;;;;35.75;9.91;100280.27;107997;1256;58993;-70
2023/05/01 10:51:21;;;;;;;7.00;1.00;;;;;;;35.76;9.82;100279.38;108016;1254;59592;-68
2023/05/01 10:54:11;;;;;;;1.60;0.70;;;;;;;35.47;10.18;100272.38;108086;1256;65057;-70
2023/05/01 10:56:39;;;;;;;1.80;0.70;;;;;;;35.15;9.98;100276.51;108145;1253;63077;-67
2023/05/01 10:59:06;;;;;;;4.20;0.80;;;;;;;34.93;9.75;100279.35;108157;1253;65889;-70
2023/05/01 11:01:46;;;;;;;3.70;1.00;;;;;;;34.76;10.30;100282.58;108096;1253;60285;-69
2023/05/01 11:04:23;;;;;;;3.10;1.10;;;;;;;34.36;10.05;100285.58;108113;1259;60190;-70
2023/05/01 11:07:09;;;;;;;3.90;0.80;;;;;;;34.26;10.40;100275.92;108086;1253;74999;-68
2023/05/01 11:09:48;;;;;;;7.00;0.90;;;;;;;34.41;10.73;100285.15;108010;1260;72475;-67
2023/05/01 11:12:35;;;;;;;4.30;0.80;;;;;;;34.46;10.32;100279.23;108057;1253;66181;-70
2023/05/01 11:15:03;;;;;;;2.60;0.80;;;;;;;34.51;10.29;100274.86;108030;1253;59612;-69
2023/05/01 11:17:42;;;;;;;4.60;1.60;;;;;;;34.33;10.35;100274.38;107997;1254;61229;-69
2023/05/01 11:20:10;;;;;;;2.90;0.70;;;;;;;34.18;10.47;100282.30;108061;1254;75069;-67
2023/05/01 11:22:47;;;;;;;4.20;0.80;;;;;;;34.47;10.46;100283.36;108051;1259;62620;-68
2023/05/01 11:25:19;;;;;;;1.30;0.80;;;;;;;34.70;10.45;100278.63;108073;1253;75159;-68
2023/05/01 11:27:54;;;;;;;5.40;1.10;;;;;;;34.56;10.43;100294.08;108031;1253;59255;-68
2023/05/01 11:30:20;;;;;;;5.30;1.20;;;;;;;34.51;10.35;100288.15;108031;1253;59405;-69